This is the latest recevied weather packets stored in our database for station/object K5WRW-WX. If no packets are shown the sender has not sent any weather packets the latest 10 day(s).
| Time | Temp. | Humidity | Pressure | Rain* | Wind** | Luminosity | Snow |
|---|---|---|---|---|---|---|---|
| 1777392615 | 20° C | 89% | 1011.3 hPa | 0.76 mm | - | - | - |
| 1777390815 | 22.22° C | 88% | 1011.5 hPa | 0.76 mm | - | - | - |
| 1777383037 | 24.44° C | 89% | 1010.8 hPa | 0 mm | - | - | - |
| 1777380017 | 24.44° C | 89% | 1010.4 hPa | 0 mm | - | - | - |
| 1777378217 | 24.44° C | 88% | 1010.3 hPa | 0 mm | - | - | - |
| 1777377617 | 24.44° C | 88% | 1010.1 hPa | 0 mm | - | - | - |
| 1777377017 | 24.44° C | 88% | 1009.8 hPa | 0 mm | - | - | - |
| 1777374017 | 24.44° C | 88% | 1009.1 hPa | 0 mm | - | - | - |
| 1777371017 | 24.44° C | 90% | 1009.2 hPa | 0 mm | - | - | - |
| 1777368017 | 24.44° C | 89% | 1009.4 hPa | 0 mm | - | - | - |
| 1777366817 | 24.44° C | 89% | 1009.5 hPa | 0 mm | - | - | - |
| 1777363816 | 24.44° C | 88% | 1009 hPa | 0 mm | - | - | - |
| 1777356616 | 23.33° C | 81% | 1009.8 hPa | 0 mm | - | - | - |
| 1777354816 | 23.33° C | 79% | 1009.8 hPa | 0 mm | - | - | - |
| 1777339817 | 28.89° C | 56% | 1007.1 hPa | 0 mm | - | - | - |
| 1777338617 | 30° C | 49% | 1006.5 hPa | 0 mm | - | - | - |
| 1777338017 | 30.56° C | 48% | 1006.6 hPa | 0 mm | - | - | - |
| 1777332017 | 32.78° C | 39% | 1006.9 hPa | 0 mm | - | - | - |
| 1777331417 | 32.78° C | 38% | 1006.8 hPa | 0 mm | - | - | - |
| 1777323662 | 32.78° C | 39% | 1006.4 hPa | 0 mm | - | - | - |
| 1777322417 | 32.78° C | 38% | 1006.5 hPa | 0 mm | - | - | - |
| 1777321816 | 32.78° C | 41% | 1006.5 hPa | 0 mm | - | - | - |
| 1777319416 | 32.22° C | 49% | 1006.6 hPa | 0 mm | - | - | - |
| 1777315816 | 31.11° C | 58% | 1006.7 hPa | 0 mm | - | - | - |
| 1777313416 | 30.56° C | 61% | 1006.8 hPa | 0 mm | - | - | - |
* Rain latest hour (hover to see other rain measurements)
** Current wind speed in m/s (hover to see current wind gust speed)